createdAt,value
2018-07-27T00:01:33.830Z,36.60
2018-07-27T00:04:02.540Z,36.70
2018-07-27T00:06:31.106Z,36.70
2018-07-27T00:08:59.594Z,37.30
2018-07-27T00:11:28.064Z,36.60
2018-07-27T00:13:56.505Z,36.90
2018-07-27T00:16:25.119Z,36.70
2018-07-27T00:18:53.670Z,36.80
2018-07-27T00:21:22.152Z,36.80
2018-07-27T00:23:50.923Z,36.90
2018-07-27T00:26:19.644Z,36.80
2018-07-27T00:28:48.159Z,37.00
2018-07-27T00:31:16.739Z,36.90
2018-07-27T00:33:45.436Z,36.90
2018-07-27T00:36:13.919Z,37.10
2018-07-27T00:38:45.535Z,37.00
2018-07-27T00:41:14.119Z,37.10
2018-07-27T00:43:42.699Z,37.10
2018-07-27T00:46:11.394Z,37.10
2018-07-27T00:51:08.490Z,37.10
2018-07-27T00:53:37.309Z,37.20
2018-07-27T00:56:06.025Z,37.20
2018-07-27T00:58:34.728Z,37.00
2018-07-27T01:01:03.338Z,37.10
2018-07-27T01:03:32.025Z,37.10
2018-07-27T01:06:00.630Z,37.00
2018-07-27T01:08:29.106Z,37.10
2018-07-27T01:10:57.516Z,37.10
2018-07-27T01:13:25.991Z,37.20
2018-07-27T01:15:54.555Z,37.10
2018-07-27T01:18:23.172Z,37.00
2018-07-27T01:20:51.836Z,37.00
2018-07-27T01:23:20.292Z,37.70
2018-07-27T01:25:49.028Z,37.00
2018-07-27T01:28:17.795Z,36.90
2018-07-27T01:30:46.344Z,37.10
2018-07-27T01:33:14.833Z,37.00
2018-07-27T01:35:43.451Z,36.90
2018-07-27T01:38:11.920Z,37.00
2018-07-27T01:40:40.764Z,37.60
2018-07-27T01:43:09.267Z,37.10
2018-07-27T01:45:37.783Z,37.10
2018-07-27T01:48:06.760Z,37.10
2018-07-27T01:50:35.312Z,37.40
2018-07-27T01:53:04.694Z,37.70
2018-07-27T01:55:33.869Z,38.30
2018-07-27T01:58:02.810Z,39.80
2018-07-27T02:00:31.610Z,40.60
2018-07-27T02:05:28.770Z,41.60
2018-07-27T02:07:57.604Z,41.70
2018-07-27T02:10:26.296Z,42.00
2018-07-27T02:12:54.757Z,42.30
2018-07-27T02:15:23.209Z,42.70
2018-07-27T02:17:51.783Z,42.70
2018-07-27T02:20:20.204Z,43.60
2018-07-27T02:22:48.860Z,43.10
2018-07-27T02:25:17.474Z,43.20
2018-07-27T02:27:46.279Z,43.60
2018-07-27T02:30:14.768Z,43.50
2018-07-27T02:32:43.271Z,43.90
2018-07-27T02:35:12.075Z,43.90
2018-07-27T02:37:40.736Z,44.00
2018-07-27T02:40:10.089Z,43.80
2018-07-27T02:42:38.937Z,43.90
2018-07-27T02:45:07.775Z,43.70
2018-07-27T02:47:36.673Z,43.60
2018-07-27T02:50:06.307Z,44.00
2018-07-27T02:52:34.811Z,44.60
2018-07-27T02:55:03.322Z,44.00
2018-07-27T02:57:31.867Z,44.10
2018-07-27T03:00:00.602Z,43.50
2018-07-27T03:02:29.328Z,43.00
2018-07-27T03:04:58.145Z,43.20
2018-07-27T03:07:26.831Z,43.40
2018-07-27T03:09:55.720Z,43.40
2018-07-27T03:12:24.223Z,42.50
2018-07-27T03:14:52.962Z,42.90
2018-07-27T03:17:21.513Z,44.30
2018-07-27T03:19:50.221Z,44.70
2018-07-27T03:22:18.872Z,45.00
2018-07-27T03:24:47.537Z,46.30
2018-07-27T03:27:16.147Z,45.80
2018-07-27T03:29:44.623Z,46.00
2018-07-27T03:32:13.120Z,46.30
2018-07-27T03:34:41.603Z,46.50
2018-07-27T03:37:10.395Z,46.50
2018-07-27T03:39:38.892Z,46.70
2018-07-27T03:42:07.674Z,46.70
2018-07-27T03:44:36.225Z,46.90
2018-07-27T03:47:04.692Z,46.90
2018-07-27T03:49:33.303Z,47.20
2018-07-27T03:52:02.027Z,47.50
2018-07-27T03:54:30.517Z,47.40
2018-07-27T03:56:59.230Z,47.20
2018-07-27T03:59:27.658Z,47.30
2018-07-27T04:01:56.093Z,47.50
2018-07-27T04:04:24.575Z,47.90
2018-07-27T04:06:53.225Z,48.40
2018-07-27T04:09:21.616Z,48.20
2018-07-27T04:11:50.137Z,48.20
2018-07-27T04:14:18.624Z,48.30
2018-07-27T04:16:47.105Z,47.80
2018-07-27T04:21:43.823Z,47.20
2018-07-27T04:24:12.460Z,47.70
2018-07-27T04:26:40.946Z,47.40
2018-07-27T04:31:37.641Z,45.30
2018-07-27T04:34:06.072Z,44.20
2018-07-27T04:36:34.583Z,43.00
2018-07-27T04:39:03.633Z,42.10
2018-07-27T04:41:32.088Z,40.80
2018-07-27T04:44:00.547Z,39.90
2018-07-27T04:46:29.024Z,38.70
2018-07-27T04:48:58.031Z,37.30
2018-07-27T04:51:26.549Z,35.80
2018-07-27T04:53:55.018Z,34.60
2018-07-27T04:56:23.487Z,33.50
2018-07-27T04:58:53.248Z,31.70
2018-07-27T05:01:21.777Z,31.10
2018-07-27T05:03:50.458Z,30.20
2018-07-27T05:06:20.317Z,29.70
2018-07-27T05:08:54.154Z,29.30
2018-07-27T05:11:22.714Z,28.60
2018-07-27T05:13:51.265Z,28.50
2018-07-27T05:16:19.938Z,27.90
2018-07-27T05:18:48.388Z,27.80
2018-07-27T05:21:16.946Z,27.30
2018-07-27T05:23:45.520Z,26.70
2018-07-27T05:26:14.505Z,26.30
2018-07-27T05:28:43.119Z,26.40
2018-07-27T05:31:11.622Z,26.40
2018-07-27T05:33:40.114Z,25.60
2018-07-27T05:36:08.629Z,25.40
2018-07-27T05:38:37.065Z,25.30
2018-07-27T05:41:05.925Z,24.90
2018-07-27T05:43:34.837Z,24.50
2018-07-27T05:46:03.498Z,24.70
2018-07-27T05:48:32.124Z,24.60
2018-07-27T05:51:00.780Z,24.50
2018-07-27T05:53:29.301Z,24.40
2018-07-27T05:55:57.878Z,24.10
2018-07-27T05:58:26.587Z,24.00
2018-07-27T06:00:55.251Z,23.80
2018-07-27T06:03:23.845Z,23.30
2018-07-27T06:05:52.296Z,23.00
2018-07-27T06:08:20.856Z,22.40
2018-07-27T06:10:49.289Z,22.50
2018-07-27T06:13:17.883Z,22.60
2018-07-27T06:15:46.413Z,22.30
2018-07-27T06:18:14.927Z,22.30
2018-07-27T06:20:43.782Z,22.30
2018-07-27T06:23:12.447Z,22.10
2018-07-27T06:25:41.169Z,22.30
2018-07-27T06:30:38.215Z,22.30
2018-07-27T06:33:06.821Z,21.90
2018-07-27T06:35:35.264Z,21.90
2018-07-27T06:38:03.853Z,21.70
2018-07-27T06:40:32.277Z,21.40
2018-07-27T06:43:00.804Z,21.70
2018-07-27T06:45:29.291Z,21.40
2018-07-27T06:47:58.681Z,21.20
2018-07-27T06:52:56.327Z,20.70
2018-07-27T06:55:24.845Z,21.30
2018-07-27T06:57:54.032Z,21.10
2018-07-27T07:00:22.612Z,21.20
2018-07-27T07:02:51.066Z,21.30
2018-07-27T07:05:19.701Z,20.60
2018-07-27T07:07:48.529Z,20.60
2018-07-27T07:10:17.155Z,20.50
2018-07-27T07:12:45.885Z,20.40
2018-07-27T07:15:14.470Z,20.40
2018-07-27T07:17:43.020Z,20.00
2018-07-27T07:20:11.584Z,19.90
2018-07-27T07:22:40.165Z,19.80
2018-07-27T07:25:09.074Z,19.80
2018-07-27T07:27:37.506Z,19.20
2018-07-27T07:30:06.072Z,19.50
2018-07-27T07:32:34.647Z,19.50
2018-07-27T07:35:03.241Z,19.50
2018-07-27T07:37:31.730Z,20.00
2018-07-27T07:40:00.351Z,20.00
2018-07-27T07:42:28.911Z,20.00
2018-07-27T07:44:57.509Z,19.80
2018-07-27T07:47:26.024Z,19.80
2018-07-27T07:49:54.516Z,19.90
2018-07-27T07:52:22.968Z,19.70
2018-07-27T07:54:51.494Z,19.70
2018-07-27T07:57:20.102Z,19.80
2018-07-27T07:59:48.723Z,19.50
2018-07-27T08:02:17.314Z,19.20
2018-07-27T08:04:46.837Z,19.50
2018-07-27T08:07:15.512Z,19.60
2018-07-27T08:09:44.065Z,19.70
2018-07-27T08:12:12.652Z,20.00
2018-07-27T08:14:41.118Z,19.90
2018-07-27T08:17:09.559Z,19.90
2018-07-27T08:19:38.173Z,20.00
2018-07-27T08:22:06.699Z,20.20
2018-07-27T08:24:35.294Z,20.00
2018-07-27T08:29:35.688Z,19.80
2018-07-27T08:32:04.645Z,19.70
2018-07-27T08:34:33.386Z,19.50
2018-07-27T08:37:03.411Z,19.40
2018-07-27T08:39:35.277Z,19.40
2018-07-27T08:42:03.929Z,19.60
2018-07-27T08:44:33.688Z,19.00
2018-07-27T08:47:02.514Z,18.70
2018-07-27T08:49:31.423Z,18.20
2018-07-27T08:52:00.316Z,18.20
2018-07-27T08:54:29.111Z,18.60
2018-07-27T08:56:57.721Z,18.40
2018-07-27T08:59:26.296Z,18.80
2018-07-27T09:01:54.865Z,18.70
2018-07-27T09:04:23.572Z,18.70
2018-07-27T09:06:52.177Z,18.70
2018-07-27T09:09:20.912Z,18.30
2018-07-27T09:11:49.625Z,18.00
2018-07-27T09:14:18.362Z,17.90
2018-07-27T09:16:47.497Z,17.90
2018-07-27T09:19:16.145Z,18.00
2018-07-27T09:21:44.906Z,17.70
2018-07-27T09:24:13.744Z,17.70
2018-07-27T09:26:42.580Z,17.60
2018-07-27T09:29:11.234Z,17.40
2018-07-27T09:31:40.393Z,17.10
2018-07-27T09:34:09.462Z,17.10
2018-07-27T09:36:38.346Z,17.30
2018-07-27T09:39:09.601Z,16.90
2018-07-27T09:41:38.048Z,17.20
2018-07-27T09:44:07.207Z,17.30
2018-07-27T09:46:36.288Z,17.40
2018-07-27T09:49:05.069Z,17.30
2018-07-27T09:51:33.633Z,16.90
2018-07-27T09:54:02.114Z,16.90
2018-07-27T09:56:31.292Z,16.70
2018-07-27T09:58:59.757Z,16.40
2018-07-27T10:01:29.171Z,16.30
2018-07-27T10:03:57.946Z,16.50
2018-07-27T10:06:26.551Z,16.30
2018-07-27T10:08:55.810Z,16.10
2018-07-27T10:11:25.274Z,16.10
2018-07-27T10:13:54.507Z,15.90
2018-07-27T10:16:23.224Z,15.80
2018-07-27T10:18:52.566Z,15.90
2018-07-27T10:21:21.532Z,15.80
2018-07-27T10:23:50.224Z,15.90
2018-07-27T10:26:18.688Z,15.70
2018-07-27T10:28:47.224Z,15.00
2018-07-27T10:31:15.793Z,14.60
2018-07-27T10:33:44.237Z,14.20
2018-07-27T10:36:12.711Z,14.40
2018-07-27T10:38:41.239Z,14.60
2018-07-27T10:41:10.688Z,14.70
2018-07-27T10:43:39.538Z,14.90
2018-07-27T10:46:08.033Z,15.00
2018-07-27T10:48:36.523Z,15.00
2018-07-27T10:51:05.155Z,15.30
2018-07-27T10:53:33.613Z,15.50
2018-07-27T10:56:02.486Z,16.00
2018-07-27T10:58:30.993Z,16.10
2018-07-27T11:00:59.417Z,15.80
2018-07-27T11:03:27.940Z,15.70
2018-07-27T11:05:56.941Z,15.50
2018-07-27T11:08:26.224Z,16.20
2018-07-27T11:10:54.877Z,16.50
2018-07-27T11:15:52.221Z,16.60
2018-07-27T11:18:21.219Z,17.70
2018-07-27T11:20:49.928Z,18.40
2018-07-27T11:23:18.776Z,19.00
2018-07-27T11:25:48.014Z,19.20
2018-07-27T11:28:16.510Z,19.60
2018-07-27T11:30:45.709Z,20.70
2018-07-27T11:33:15.131Z,20.00
2018-07-27T11:35:44.432Z,20.00
2018-07-27T11:38:13.360Z,20.60
2018-07-27T11:40:42.548Z,20.60
2018-07-27T11:43:11.883Z,20.80
2018-07-27T11:45:40.725Z,21.20
2018-07-27T11:48:10.214Z,21.80
2018-07-27T11:50:38.845Z,21.50
2018-07-27T11:53:08.047Z,21.00
2018-07-27T11:55:37.043Z,21.20
2018-07-27T11:58:06.286Z,21.50
2018-07-27T12:00:35.316Z,21.40
2018-07-27T12:03:04.050Z,21.80
2018-07-27T12:05:33.280Z,21.90
2018-07-27T12:08:02.217Z,21.90
2018-07-27T12:10:31.490Z,21.80
2018-07-27T12:13:00.238Z,21.20
2018-07-27T12:15:29.433Z,20.80
2018-07-27T12:17:58.308Z,21.40
2018-07-27T12:20:27.491Z,21.90
2018-07-27T12:22:56.101Z,22.00
2018-07-27T12:25:24.926Z,22.00
2018-07-27T12:27:53.639Z,22.30
2018-07-27T12:30:22.138Z,21.70
2018-07-27T12:32:50.576Z,21.50
2018-07-27T12:35:19.298Z,21.60
2018-07-27T12:37:47.890Z,21.80
2018-07-27T12:40:16.341Z,21.70
2018-07-27T12:42:44.934Z,22.00
2018-07-27T12:45:13.696Z,21.90
2018-07-27T12:47:42.181Z,21.30
2018-07-27T12:50:10.694Z,22.00
2018-07-27T12:52:39.518Z,22.10
2018-07-27T12:55:08.153Z,21.70
2018-07-27T12:57:36.621Z,22.00
2018-07-27T13:00:07.038Z,22.00
2018-07-27T13:05:03.811Z,21.50
2018-07-27T13:07:32.686Z,21.50
2018-07-27T13:10:06.025Z,21.80
2018-07-27T13:12:36.368Z,21.70
2018-07-27T13:15:06.919Z,22.00
2018-07-27T13:17:35.588Z,21.90
2018-07-27T13:20:04.837Z,22.00
2018-07-27T13:22:33.656Z,21.60
2018-07-27T13:25:02.283Z,21.40
2018-07-27T13:27:30.936Z,21.80
2018-07-27T13:29:59.407Z,22.10
2018-07-27T13:32:28.105Z,22.10
2018-07-27T13:34:59.659Z,22.00
2018-07-27T13:37:32.415Z,21.90
2018-07-27T13:40:02.265Z,20.80
2018-07-27T13:42:32.155Z,21.30
2018-07-27T13:45:00.817Z,21.40
2018-07-27T13:47:29.416Z,21.60
2018-07-27T13:49:57.955Z,21.00
2018-07-27T13:52:26.723Z,20.80
2018-07-27T13:54:55.609Z,20.90
2018-07-27T13:57:24.243Z,21.10
2018-07-27T13:59:52.766Z,21.10
2018-07-27T14:02:21.229Z,20.90
2018-07-27T14:04:50.021Z,21.00
2018-07-27T14:07:18.476Z,21.10
2018-07-27T14:09:46.972Z,21.20
2018-07-27T14:12:15.639Z,21.00
2018-07-27T14:14:44.167Z,20.90
2018-07-27T14:17:12.734Z,20.70
2018-07-27T14:19:41.523Z,19.90
2018-07-27T14:22:10.025Z,20.40
2018-07-27T14:24:38.485Z,20.20
2018-07-27T14:27:07.275Z,20.30
2018-07-27T14:29:35.840Z,20.80
2018-07-27T14:32:04.408Z,20.30
2018-07-27T14:34:33.014Z,20.10
2018-07-27T14:37:01.516Z,19.90
2018-07-27T14:39:29.969Z,20.10
2018-07-27T14:41:58.468Z,20.20
2018-07-27T14:44:27.234Z,20.10
2018-07-27T14:46:56.109Z,20.40
2018-07-27T14:49:24.604Z,20.40
2018-07-27T14:51:53.240Z,20.60
2018-07-27T14:54:21.774Z,20.30
2018-07-27T14:59:19.195Z,20.70
2018-07-27T15:01:50.440Z,20.60
2018-07-27T15:04:19.019Z,20.90
2018-07-27T15:06:47.432Z,21.00
2018-07-27T15:09:15.925Z,21.10
2018-07-27T15:14:13.504Z,21.30
2018-07-27T15:16:41.962Z,21.10
2018-07-27T15:19:10.476Z,20.80
2018-07-27T15:21:39.116Z,21.00
2018-07-27T15:24:07.578Z,20.40
2018-07-27T15:26:36.389Z,20.40
2018-07-27T15:29:04.955Z,20.50
2018-07-27T15:31:33.394Z,20.50
2018-07-27T15:34:01.905Z,20.40
2018-07-27T15:36:30.390Z,20.30
2018-07-27T15:38:58.841Z,20.10
2018-07-27T15:41:27.277Z,20.10
2018-07-27T15:43:56.045Z,20.30
2018-07-27T15:46:24.517Z,20.40
2018-07-27T15:48:53.083Z,21.00
2018-07-27T15:51:21.616Z,20.60
2018-07-27T15:53:50.066Z,20.60
2018-07-27T15:56:18.573Z,20.50
2018-07-27T15:58:47.086Z,20.60
2018-07-27T16:01:15.693Z,20.60
2018-07-27T16:03:44.499Z,20.20
2018-07-27T16:06:13.217Z,20.50
2018-07-27T16:08:41.780Z,20.80
2018-07-27T16:13:38.498Z,20.50
2018-07-27T16:16:07.417Z,20.20
2018-07-27T16:18:35.921Z,20.40
2018-07-27T16:21:04.432Z,20.50
2018-07-27T16:23:32.978Z,20.40
2018-07-27T16:26:01.674Z,20.10
2018-07-27T16:28:30.294Z,20.00
2018-07-27T16:30:58.901Z,20.10
2018-07-27T16:33:27.680Z,20.10
2018-07-27T16:35:56.327Z,19.80
2018-07-27T16:51:30.145Z,20.10
2018-07-27T16:53:58.658Z,20.50
2018-07-27T16:56:27.268Z,20.60
2018-07-27T16:58:56.037Z,20.70
2018-07-27T17:01:24.536Z,20.70
2018-07-27T17:03:53.414Z,20.40
2018-07-27T17:06:21.908Z,20.50
2018-07-27T17:08:50.389Z,20.40
2018-07-27T17:11:19.029Z,20.40
2018-07-27T17:13:47.602Z,20.70
2018-07-27T17:16:16.130Z,20.70
2018-07-27T17:18:44.763Z,20.80
2018-07-27T17:21:13.254Z,20.30
2018-07-27T17:23:42.309Z,20.30
2018-07-27T17:26:10.927Z,20.40
2018-07-27T17:31:07.691Z,20.70
2018-07-27T17:33:36.136Z,19.90
2018-07-27T17:36:05.147Z,20.60
2018-07-27T17:38:33.729Z,20.70
2018-07-27T17:41:02.779Z,20.90
2018-07-27T17:43:31.323Z,21.10
2018-07-27T17:45:59.861Z,21.10
2018-07-27T17:48:28.301Z,21.20
2018-07-27T17:50:56.986Z,21.20
2018-07-27T17:53:25.628Z,21.30
2018-07-27T17:55:54.462Z,21.50
2018-07-27T17:58:23.013Z,21.70
2018-07-27T18:00:51.788Z,21.90
2018-07-27T18:03:20.575Z,21.80
2018-07-27T18:05:49.041Z,21.90
2018-07-27T18:08:17.472Z,21.90
2018-07-27T18:10:46.020Z,21.90
2018-07-27T18:13:14.527Z,22.10
2018-07-27T18:15:43.052Z,22.10
2018-07-27T18:18:11.525Z,22.00
2018-07-27T18:20:41.103Z,22.30
2018-07-27T18:23:10.764Z,22.20
2018-07-27T18:25:40.082Z,22.30
2018-07-27T18:28:09.784Z,22.60
2018-07-27T18:30:39.310Z,22.70
2018-07-27T18:33:08.452Z,22.90
2018-07-27T18:35:37.291Z,23.10
2018-07-27T18:38:05.832Z,23.30
2018-07-27T18:40:34.263Z,23.60
2018-07-27T18:43:02.729Z,23.70
2018-07-27T18:45:31.194Z,23.90
2018-07-27T18:47:59.826Z,24.30
2018-07-27T18:50:28.525Z,24.20
2018-07-27T18:52:57.070Z,24.50
2018-07-27T18:55:26.408Z,24.70
2018-07-27T18:57:55.304Z,25.10
2018-07-27T19:02:51.997Z,25.60
2018-07-27T19:05:20.715Z,25.90
2018-07-27T19:07:49.470Z,26.30
2018-07-27T19:10:18.116Z,26.60
2018-07-27T19:12:46.664Z,27.00
2018-07-27T19:15:15.530Z,27.50
2018-07-27T19:17:44.147Z,27.60
2018-07-27T19:20:12.773Z,27.80
2018-07-27T19:22:41.588Z,28.00
2018-07-27T19:25:10.136Z,28.10
2018-07-27T19:27:38.619Z,28.40
2018-07-27T19:30:09.389Z,29.20
2018-07-27T19:32:37.860Z,29.50
2018-07-27T19:35:06.388Z,30.40
2018-07-27T19:37:35.175Z,30.50
2018-07-27T19:40:03.701Z,31.50
2018-07-27T19:42:32.543Z,31.40
2018-07-27T19:45:01.847Z,32.20
2018-07-27T19:49:58.847Z,32.70
2018-07-27T19:52:27.433Z,33.60
2018-07-27T19:54:56.470Z,33.60
2018-07-27T19:57:25.118Z,34.00
2018-07-27T19:59:53.617Z,34.00
2018-07-27T20:02:24.437Z,34.20
2018-07-27T20:04:53.114Z,35.00
2018-07-27T20:07:21.931Z,35.10
2018-07-27T20:09:50.798Z,34.70
2018-07-27T20:12:19.461Z,35.50
2018-07-27T20:14:48.093Z,35.00
2018-07-27T20:17:17.635Z,35.40
2018-07-27T20:19:46.692Z,35.40
2018-07-27T20:22:17.877Z,35.60
2018-07-27T20:24:46.342Z,35.70
2018-07-27T20:27:14.814Z,35.30
2018-07-27T20:32:11.624Z,35.40
2018-07-27T20:34:40.672Z,35.60
2018-07-27T20:37:09.973Z,35.20
2018-07-27T20:39:38.634Z,35.50
2018-07-27T20:42:07.513Z,35.30
2018-07-27T20:44:36.359Z,35.40
2018-07-27T20:47:07.648Z,35.40
2018-07-27T20:49:36.522Z,35.30
2018-07-27T20:52:05.179Z,35.30
2018-07-27T20:54:33.693Z,35.40
2018-07-27T20:57:02.278Z,35.20
2018-07-27T20:59:30.833Z,35.50
2018-07-27T21:01:59.576Z,35.10
2018-07-27T21:04:28.227Z,35.10
2018-07-27T21:06:57.002Z,35.10
2018-07-27T21:09:25.688Z,34.90
2018-07-27T21:11:54.168Z,35.10
2018-07-27T21:14:22.850Z,35.00
2018-07-27T21:16:51.542Z,34.50
2018-07-27T21:19:19.981Z,34.40
2018-07-27T21:21:48.996Z,34.20
2018-07-27T21:24:17.452Z,34.00
2018-07-27T21:26:46.329Z,33.90
2018-07-27T21:29:15.260Z,33.70
2018-07-27T21:31:44.228Z,33.50
2018-07-27T21:34:12.927Z,33.40
2018-07-27T21:36:41.604Z,33.40
2018-07-27T21:39:12.874Z,33.30
2018-07-27T21:41:43.249Z,33.30
2018-07-27T21:44:12.468Z,33.30
2018-07-27T21:46:42.185Z,33.40
2018-07-27T21:49:10.733Z,33.50
2018-07-27T21:51:39.614Z,33.50
2018-07-27T21:54:08.980Z,33.50
2018-07-27T21:56:37.473Z,33.70
2018-07-27T22:04:02.387Z,34.10
2018-07-27T22:06:31.310Z,34.10
2018-07-27T22:09:00.248Z,34.20
2018-07-27T22:11:29.673Z,34.30
2018-07-27T22:13:58.689Z,34.40
2018-07-27T22:16:27.414Z,34.70
2018-07-27T22:18:56.082Z,34.90
2018-07-27T22:21:24.975Z,35.00
2018-07-27T22:23:53.766Z,35.20
2018-07-27T22:26:22.460Z,35.40
2018-07-27T22:28:51.216Z,35.50
2018-07-27T22:31:19.899Z,35.70
2018-07-27T22:33:48.457Z,35.80
2018-07-27T22:36:17.299Z,36.00
2018-07-27T22:38:45.995Z,36.20
2018-07-27T22:41:14.724Z,36.40
2018-07-27T22:43:43.417Z,36.60
2018-07-27T22:46:11.951Z,37.30
2018-07-27T22:48:40.463Z,37.00
2018-07-27T22:51:08.983Z,37.10
2018-07-27T22:53:37.865Z,37.40
2018-07-27T22:56:06.406Z,37.40
2018-07-27T22:58:34.977Z,37.60
2018-07-27T23:01:03.747Z,37.90
2018-07-27T23:03:32.613Z,37.90
2018-07-27T23:06:01.434Z,38.00
2018-07-27T23:08:30.280Z,38.20
2018-07-27T23:10:58.985Z,38.30
2018-07-27T23:13:27.970Z,38.40
2018-07-27T23:15:56.458Z,38.50
2018-07-27T23:18:25.191Z,38.70
2018-07-27T23:20:53.805Z,38.70
2018-07-27T23:23:23.102Z,38.90
2018-07-27T23:25:52.007Z,39.00
2018-07-27T23:28:20.514Z,39.20
2018-07-27T23:30:49.538Z,39.30
2018-07-27T23:33:18.284Z,39.40
2018-07-27T23:35:47.267Z,39.50
2018-07-27T23:38:16.861Z,39.60
2018-07-27T23:40:45.987Z,39.70
2018-07-27T23:43:14.544Z,39.80
2018-07-27T23:45:43.349Z,39.90
2018-07-27T23:48:12.480Z,40.00
2018-07-27T23:50:41.853Z,40.00
2018-07-27T23:53:10.893Z,40.10
2018-07-27T23:55:39.942Z,40.20
